createdAt,value
2018-09-23T00:02:08.964Z,65.07
2018-09-23T00:04:37.074Z,66.09
2018-09-23T00:07:05.493Z,65.71
2018-09-23T00:09:33.776Z,65.10
2018-09-23T00:12:01.994Z,65.07
2018-09-23T00:14:31.173Z,65.14
2018-09-23T00:17:00.022Z,64.95
2018-09-23T00:19:29.196Z,65.16
2018-09-23T00:21:57.997Z,65.36
2018-09-23T00:24:26.234Z,65.46
2018-09-23T00:26:54.422Z,65.20
2018-09-23T00:29:28.228Z,65.21
2018-09-23T00:31:56.508Z,64.33
2018-09-23T00:34:24.905Z,65.42
2018-09-23T00:36:53.153Z,65.29
2018-09-23T00:39:21.402Z,64.79
2018-09-23T00:41:49.799Z,65.57
2018-09-23T00:44:18.047Z,64.92
2018-09-23T00:46:47.266Z,64.89
2018-09-23T00:49:15.645Z,64.29
2018-09-23T00:51:43.841Z,64.96
2018-09-23T00:54:11.993Z,64.84
2018-09-23T00:56:40.233Z,64.10
2018-09-23T00:59:08.582Z,64.90
2018-09-23T01:01:36.749Z,64.82
2018-09-23T01:04:04.986Z,64.74
2018-09-23T01:06:33.282Z,64.45
2018-09-23T01:09:02.979Z,64.82
2018-09-23T01:11:31.814Z,64.50
2018-09-23T01:14:00.023Z,64.96
2018-09-23T01:16:28.235Z,65.38
2018-09-23T01:18:56.459Z,65.23
2018-09-23T01:21:24.665Z,65.22
2018-09-23T01:23:52.871Z,64.68
2018-09-23T01:26:21.031Z,64.91
2018-09-23T01:28:49.316Z,64.99
2018-09-23T01:31:17.573Z,64.67
2018-09-23T01:33:45.819Z,64.97
2018-09-23T01:36:14.023Z,64.83
2018-09-23T01:38:50.612Z,65.68
2018-09-23T01:41:18.765Z,65.84
2018-09-23T01:43:46.957Z,65.21
2018-09-23T01:46:16.881Z,65.42
2018-09-23T01:48:45.129Z,65.65
2018-09-23T01:51:13.322Z,65.79
2018-09-23T01:53:41.587Z,65.08
2018-09-23T01:56:10.848Z,65.52
2018-09-23T01:58:39.005Z,65.28
2018-09-23T02:01:07.256Z,64.92
2018-09-23T02:03:36.107Z,65.01
2018-09-23T02:06:04.384Z,64.10
2018-09-23T02:08:33.191Z,65.19
2018-09-23T02:11:01.319Z,65.06
2018-09-23T02:13:29.619Z,65.21
2018-09-23T02:15:59.020Z,65.14
2018-09-23T02:18:27.419Z,64.97
2018-09-23T02:20:55.600Z,65.00
2018-09-23T02:23:23.851Z,65.13
2018-09-23T02:25:52.949Z,65.50
2018-09-23T02:28:21.270Z,64.95
2018-09-23T02:30:49.633Z,64.85
2018-09-23T02:33:17.965Z,65.34
2018-09-23T02:35:47.118Z,65.42
2018-09-23T02:38:15.288Z,65.52
2018-09-23T02:40:43.480Z,65.08
2018-09-23T02:43:11.733Z,64.76
2018-09-23T02:45:39.948Z,65.15
2018-09-23T02:48:08.232Z,65.57
2018-09-23T02:50:36.329Z,65.55
2018-09-23T02:53:04.514Z,65.41
2018-09-23T02:55:32.720Z,65.84
2018-09-23T02:58:00.857Z,65.23
2018-09-23T03:00:29.140Z,64.51
2018-09-23T03:02:57.391Z,64.51
2018-09-23T03:05:25.691Z,64.69
2018-09-23T03:07:54.036Z,65.32
2018-09-23T03:10:22.674Z,64.92
2018-09-23T03:12:52.338Z,64.30
2018-09-23T03:15:20.702Z,65.75
2018-09-23T03:17:48.951Z,65.56
2018-09-23T03:20:17.100Z,65.16
2018-09-23T03:22:45.291Z,65.64
2018-09-23T03:25:13.539Z,65.73
2018-09-23T03:27:42.703Z,65.37
2018-09-23T03:30:10.836Z,65.86
2018-09-23T03:32:38.987Z,66.03
2018-09-23T03:35:08.035Z,65.30
2018-09-23T03:37:36.225Z,65.77
2018-09-23T03:40:10.765Z,65.20
2018-09-23T03:42:39.875Z,66.11
2018-09-23T03:45:08.319Z,65.16
2018-09-23T03:47:36.497Z,65.53
2018-09-23T03:50:04.782Z,65.48
2018-09-23T03:52:32.942Z,65.01
2018-09-23T03:55:01.882Z,65.82
2018-09-23T03:57:30.072Z,65.20
2018-09-23T03:59:58.354Z,66.03
2018-09-23T04:02:26.562Z,66.36
2018-09-23T04:04:54.758Z,66.18
2018-09-23T04:07:23.078Z,65.87
2018-09-23T04:09:51.216Z,65.54
2018-09-23T04:12:19.549Z,65.54
2018-09-23T04:14:47.688Z,65.71
2018-09-23T04:17:16.500Z,65.92
2018-09-23T04:19:44.610Z,66.65
2018-09-23T04:22:12.849Z,66.04
2018-09-23T04:24:41.304Z,66.18
2018-09-23T04:27:09.546Z,66.42
2018-09-23T04:29:37.842Z,66.35
2018-09-23T04:32:06.202Z,66.00
2018-09-23T04:34:34.370Z,66.83
2018-09-23T04:37:03.056Z,67.15
2018-09-23T04:39:31.204Z,66.44
2018-09-23T04:41:59.363Z,66.26
2018-09-23T04:44:28.188Z,66.95
2018-09-23T04:46:56.712Z,66.78
2018-09-23T04:49:25.292Z,65.86
2018-09-23T04:51:55.157Z,66.47
2018-09-23T04:54:26.183Z,66.79
2018-09-23T04:56:55.156Z,66.77
2018-09-23T04:59:24.062Z,66.92
2018-09-23T05:01:52.186Z,66.11
2018-09-23T05:04:20.304Z,66.30
2018-09-23T05:06:49.854Z,66.87
2018-09-23T05:09:18.043Z,67.36
2018-09-23T05:11:47.306Z,67.25
2018-09-23T05:14:16.815Z,67.57
2018-09-23T05:16:45.027Z,68.72
2018-09-23T05:19:13.274Z,69.30
2018-09-23T05:21:41.547Z,68.53
2018-09-23T05:24:10.402Z,68.54
2018-09-23T05:26:38.577Z,68.97
2018-09-23T05:29:06.752Z,68.14
2018-09-23T05:31:36.329Z,68.83
2018-09-23T05:34:04.477Z,68.62
2018-09-23T05:36:32.725Z,68.08
2018-09-23T05:39:00.984Z,67.13
2018-09-23T05:41:29.725Z,67.23
2018-09-23T05:43:57.892Z,68.07
2018-09-23T05:46:26.146Z,67.41
2018-09-23T05:48:54.425Z,66.81
2018-09-23T05:51:23.448Z,67.35
2018-09-23T05:53:51.684Z,66.65
2018-09-23T05:56:19.923Z,66.14
2018-09-23T05:58:48.141Z,66.89
2018-09-23T06:01:17.885Z,66.91
2018-09-23T06:03:46.026Z,66.78
2018-09-23T06:06:14.335Z,66.56
2018-09-23T06:08:43.224Z,66.44
2018-09-23T06:11:11.422Z,66.41
2018-09-23T06:13:39.598Z,66.81
2018-09-23T06:16:08.030Z,66.93
2018-09-23T06:18:36.910Z,68.12
2018-09-23T06:21:05.280Z,68.14
2018-09-23T06:23:33.500Z,67.87
2018-09-23T06:26:01.719Z,67.25
2018-09-23T06:28:29.836Z,68.08
2018-09-23T06:30:57.977Z,67.16
2018-09-23T06:33:26.170Z,66.68
2018-09-23T06:35:54.956Z,66.86
2018-09-23T06:38:23.216Z,66.84
2018-09-23T06:40:51.754Z,66.28
2018-09-23T06:43:21.077Z,66.32
2018-09-23T06:45:49.471Z,66.18
2018-09-23T06:48:18.978Z,66.12
2018-09-23T06:50:47.128Z,66.04
2018-09-23T06:53:15.270Z,66.27
2018-09-23T06:55:43.990Z,66.83
2018-09-23T06:58:12.152Z,66.54
2018-09-23T07:00:40.409Z,66.70
2018-09-23T07:03:08.612Z,66.01
2018-09-23T07:05:36.838Z,66.27
2018-09-23T07:08:05.105Z,66.18
2018-09-23T07:10:33.380Z,66.65
2018-09-23T07:13:01.573Z,67.39
2018-09-23T07:15:29.750Z,68.49
2018-09-23T07:17:58.256Z,71.49
2018-09-23T07:20:26.407Z,71.94
2018-09-23T07:22:54.562Z,71.64
2018-09-23T07:25:22.848Z,71.65
2018-09-23T07:27:52.780Z,70.67
2018-09-23T07:30:21.023Z,69.35
2018-09-23T07:32:49.337Z,69.16
2018-09-23T07:35:17.605Z,69.25
2018-09-23T07:37:45.787Z,69.22
2018-09-23T07:40:14.093Z,69.44
2018-09-23T07:42:42.263Z,70.08
2018-09-23T07:45:10.533Z,70.39
2018-09-23T07:47:38.843Z,70.52
2018-09-23T07:50:07.234Z,70.65
2018-09-23T07:52:35.631Z,71.28
2018-09-23T07:55:03.841Z,71.78
2018-09-23T07:57:32.095Z,71.49
2018-09-23T08:00:00.567Z,71.46
2018-09-23T08:02:30.257Z,71.56
2018-09-23T08:04:59.143Z,70.69
2018-09-23T08:07:27.748Z,71.70
2018-09-23T08:09:55.920Z,70.77
2018-09-23T08:12:24.187Z,70.28
2018-09-23T08:14:52.852Z,70.86
2018-09-23T08:17:20.871Z,71.13
2018-09-23T08:19:49.303Z,72.66
2018-09-23T08:22:17.727Z,70.55
2018-09-23T08:24:45.980Z,71.74
2018-09-23T08:27:15.189Z,71.20
2018-09-23T08:29:43.426Z,70.87
2018-09-23T08:32:12.444Z,71.21
2018-09-23T08:34:40.694Z,69.22
2018-09-23T08:37:08.870Z,69.71
2018-09-23T08:39:37.341Z,69.13
2018-09-23T08:42:05.680Z,68.08
2018-09-23T08:44:34.031Z,66.77
2018-09-23T08:47:02.232Z,66.41
2018-09-23T08:49:30.504Z,66.25
2018-09-23T08:51:58.788Z,66.47
2018-09-23T08:54:26.864Z,66.26
2018-09-23T08:56:55.108Z,67.86
2018-09-23T08:59:23.511Z,68.45
2018-09-23T09:01:51.814Z,69.00
2018-09-23T09:04:20.271Z,68.76
2018-09-23T09:06:48.639Z,67.03
2018-09-23T09:09:16.923Z,67.21
2018-09-23T09:11:45.181Z,66.40
2018-09-23T09:14:13.707Z,64.94
2018-09-23T09:16:41.973Z,64.69
2018-09-23T09:19:10.317Z,64.40
2018-09-23T09:21:38.629Z,64.27
2018-09-23T09:24:06.951Z,64.66
2018-09-23T09:26:35.193Z,63.78
2018-09-23T09:29:03.872Z,64.87
2018-09-23T09:31:32.151Z,65.73
2018-09-23T09:34:01.210Z,65.99
2018-09-23T09:36:30.056Z,65.97
2018-09-23T09:38:58.292Z,65.67
2018-09-23T09:41:26.489Z,66.79
2018-09-23T09:43:54.984Z,66.16
2018-09-23T09:46:23.393Z,66.22
2018-09-23T09:48:51.689Z,67.45
2018-09-23T09:51:19.863Z,67.09
2018-09-23T09:53:48.180Z,67.60
2018-09-23T09:56:16.500Z,68.21
2018-09-23T09:58:44.961Z,68.39
2018-09-23T10:01:13.325Z,67.98
2018-09-23T10:03:42.759Z,68.16
2018-09-23T10:06:11.328Z,68.25
2018-09-23T10:08:39.664Z,67.23
2018-09-23T10:11:08.116Z,67.92
2018-09-23T10:13:36.316Z,67.81
2018-09-23T10:16:04.938Z,68.16
2018-09-23T10:18:33.338Z,68.25
2018-09-23T10:21:01.487Z,67.71
2018-09-23T10:23:30.436Z,67.74
2018-09-23T10:25:58.430Z,68.70
2018-09-23T10:28:26.736Z,69.13
2018-09-23T10:30:55.102Z,69.28
2018-09-23T10:33:23.442Z,68.23
2018-09-23T10:35:51.620Z,69.45
2018-09-23T10:38:19.879Z,69.67
2018-09-23T10:40:48.314Z,70.05
2018-09-23T10:43:16.608Z,69.30
2018-09-23T10:45:45.074Z,69.70
2018-09-23T10:48:13.411Z,69.61
2018-09-23T10:50:41.668Z,68.19
2018-09-23T10:53:10.072Z,67.18
2018-09-23T10:55:38.506Z,67.92
2018-09-23T10:58:06.662Z,69.05
2018-09-23T11:00:37.510Z,70.05
2018-09-23T11:03:07.183Z,69.32
2018-09-23T11:05:35.638Z,69.53
2018-09-23T11:08:03.926Z,68.94
2018-09-23T11:10:32.389Z,69.99
2018-09-23T11:13:00.558Z,71.69
2018-09-23T11:15:28.995Z,72.29
2018-09-23T11:17:57.122Z,72.34
2018-09-23T11:20:25.510Z,71.90
2018-09-23T11:22:53.727Z,71.27
2018-09-23T11:25:22.003Z,70.28
2018-09-23T11:27:50.169Z,71.22
2018-09-23T11:30:18.515Z,70.46
2018-09-23T11:32:46.881Z,68.99
2018-09-23T11:35:15.239Z,70.07
2018-09-23T11:37:44.200Z,69.34
2018-09-23T11:40:12.441Z,69.87
2018-09-23T11:42:40.904Z,71.49
2018-09-23T11:45:09.378Z,72.15
2018-09-23T11:47:37.809Z,72.03
2018-09-23T11:50:06.039Z,72.67
2018-09-23T11:52:34.381Z,72.19
2018-09-23T11:55:02.688Z,73.54
2018-09-23T11:57:31.039Z,71.92
2018-09-23T11:59:59.682Z,72.31
2018-09-23T12:02:27.908Z,73.40
2018-09-23T12:04:56.463Z,72.80
2018-09-23T12:07:24.785Z,73.30
2018-09-23T12:09:53.104Z,74.31
2018-09-23T12:12:21.283Z,74.33
2018-09-23T12:14:49.475Z,76.47
2018-09-23T12:17:17.696Z,75.96
2018-09-23T12:19:45.988Z,74.99
2018-09-23T12:22:14.319Z,73.67
2018-09-23T12:24:42.498Z,74.04
2018-09-23T12:27:10.710Z,75.00
2018-09-23T12:29:39.048Z,74.76
2018-09-23T12:32:07.292Z,73.22
2018-09-23T12:34:35.521Z,76.12
2018-09-23T12:37:03.779Z,75.59
2018-09-23T12:39:32.449Z,77.54
2018-09-23T12:42:01.802Z,76.97
2018-09-23T12:44:31.468Z,78.87
2018-09-23T12:47:00.156Z,79.42
2018-09-23T12:49:28.744Z,80.53
2018-09-23T12:51:58.061Z,80.75
2018-09-23T12:54:27.853Z,79.98
2018-09-23T12:56:57.003Z,79.75
2018-09-23T12:59:25.191Z,78.57
2018-09-23T13:01:53.397Z,80.70
2018-09-23T13:04:21.578Z,80.88
2018-09-23T13:06:49.699Z,79.47
2018-09-23T13:09:17.907Z,79.49
2018-09-23T13:11:46.400Z,79.51
2018-09-23T13:14:14.523Z,79.76
2018-09-23T13:16:42.680Z,80.56
2018-09-23T13:19:10.910Z,80.37
2018-09-23T13:21:46.545Z,80.59
2018-09-23T13:24:14.723Z,80.32
2018-09-23T13:26:43.704Z,80.66
2018-09-23T13:29:12.540Z,81.39
2018-09-23T13:31:40.723Z,81.85
2018-09-23T13:34:09.877Z,81.66
2018-09-23T13:36:38.099Z,81.73
2018-09-23T13:39:07.340Z,81.66
2018-09-23T13:41:35.638Z,82.71
2018-09-23T13:44:04.078Z,82.71
2018-09-23T13:46:32.348Z,83.63
2018-09-23T13:49:00.544Z,84.80
2018-09-23T13:51:28.687Z,86.36
2018-09-23T13:53:56.929Z,86.37
2018-09-23T13:56:25.113Z,86.84
2018-09-23T13:58:53.500Z,86.52
2018-09-23T14:01:21.638Z,86.22
2018-09-23T14:03:49.883Z,84.90
2018-09-23T14:06:18.173Z,84.54
2018-09-23T14:08:47.322Z,84.71
2018-09-23T14:11:15.724Z,85.95
2018-09-23T14:13:43.893Z,85.83
2018-09-23T14:16:12.194Z,85.69
2018-09-23T14:18:40.408Z,84.77
2018-09-23T14:21:08.877Z,85.15
2018-09-23T14:23:37.040Z,85.15
2018-09-23T14:26:05.321Z,84.53
2018-09-23T14:28:34.172Z,84.95
2018-09-23T14:40:31.564Z,83.41
2018-09-23T14:42:59.824Z,83.91
2018-09-23T14:45:28.177Z,83.29
2018-09-23T14:47:56.514Z,83.19
2018-09-23T14:50:24.730Z,83.36
2018-09-23T14:52:52.914Z,83.71
2018-09-23T14:55:21.280Z,82.98
2018-09-23T14:57:49.588Z,82.93
2018-09-23T15:00:17.753Z,82.88
2018-09-23T15:02:46.090Z,83.47
2018-09-23T15:05:14.279Z,83.86
2018-09-23T15:07:49.771Z,83.32
2018-09-23T15:10:17.958Z,83.55
2018-09-23T15:12:46.189Z,84.17
2018-09-23T15:15:14.450Z,85.34
2018-09-23T15:17:42.684Z,84.29
2018-09-23T15:20:10.935Z,84.77
2018-09-23T15:22:39.160Z,85.42
2018-09-23T15:25:07.498Z,85.40
2018-09-23T15:27:36.068Z,85.03
2018-09-23T15:30:04.456Z,85.26
2018-09-23T15:32:32.628Z,85.77
2018-09-23T15:35:00.851Z,85.57
2018-09-23T15:37:29.064Z,86.84
2018-09-23T15:39:57.350Z,88.05
2018-09-23T15:42:25.610Z,89.25
2018-09-23T15:44:54.522Z,89.14
2018-09-23T15:47:22.777Z,90.04
2018-09-23T15:49:50.965Z,89.46
2018-09-23T15:52:19.215Z,89.98
2018-09-23T15:54:47.393Z,90.43
2018-09-23T15:57:15.614Z,91.09
2018-09-23T15:59:43.881Z,91.25
2018-09-23T16:02:12.125Z,89.83
2018-09-23T16:04:40.315Z,89.84
2018-09-23T16:07:08.487Z,90.82
2018-09-23T16:09:37.441Z,89.85
2018-09-23T16:12:05.701Z,89.43
2018-09-23T16:14:34.695Z,87.86
2018-09-23T16:17:02.873Z,88.01
2018-09-23T16:19:31.048Z,87.48
2018-09-23T16:21:59.159Z,87.00
2018-09-23T16:24:27.301Z,87.80
2018-09-23T16:26:55.475Z,87.40
2018-09-23T16:29:23.664Z,88.60
2018-09-23T16:31:52.080Z,88.38
2018-09-23T16:34:20.275Z,88.46
2018-09-23T16:36:48.521Z,87.88
2018-09-23T16:39:16.829Z,87.29
2018-09-23T16:41:45.047Z,86.91
2018-09-23T16:44:13.201Z,86.94
2018-09-23T16:46:41.489Z,86.06
2018-09-23T16:49:09.631Z,85.33
2018-09-23T16:51:37.937Z,85.65
2018-09-23T16:54:06.209Z,86.43
2018-09-23T16:56:34.378Z,86.77
2018-09-23T16:59:02.786Z,86.41
2018-09-23T17:01:30.936Z,86.92
2018-09-23T17:04:01.920Z,86.94
2018-09-23T17:06:30.212Z,86.23
2018-09-23T17:08:58.318Z,86.22
2018-09-23T17:11:26.476Z,86.88
2018-09-23T17:13:54.636Z,86.57
2018-09-23T17:16:22.798Z,86.25
2018-09-23T17:18:51.087Z,86.78
2018-09-23T17:21:19.274Z,86.06
2018-09-23T17:23:48.163Z,86.42
2018-09-23T17:26:16.292Z,86.33
2018-09-23T17:28:44.653Z,86.26
2018-09-23T17:31:12.857Z,85.90
2018-09-23T17:33:41.876Z,85.61
2018-09-23T17:36:10.050Z,85.90
2018-09-23T17:38:38.301Z,85.86
2018-09-23T17:41:06.711Z,85.89
2018-09-23T17:43:34.884Z,86.07
2018-09-23T17:46:03.377Z,85.96
2018-09-23T17:48:31.630Z,87.15
2018-09-23T17:50:59.747Z,88.27
2018-09-23T17:53:27.987Z,89.13
2018-09-23T17:56:02.731Z,89.08
2018-09-23T17:58:30.933Z,89.77
2018-09-23T18:00:59.193Z,91.12
2018-09-23T18:03:27.393Z,91.38
2018-09-23T18:05:55.670Z,91.36
2018-09-23T18:08:23.983Z,91.53
2018-09-23T18:10:52.261Z,91.90
2018-09-23T18:13:20.418Z,91.72
2018-09-23T18:15:49.145Z,91.49
2018-09-23T18:18:17.277Z,90.67
2018-09-23T18:20:45.483Z,90.72
2018-09-23T18:23:13.592Z,88.85
2018-09-23T18:25:41.797Z,89.53
2018-09-23T18:28:10.002Z,89.37
2018-09-23T18:30:38.191Z,89.21
2018-09-23T18:33:06.792Z,88.92
2018-09-23T18:35:35.214Z,88.51
2018-09-23T18:38:03.395Z,88.68
2018-09-23T18:40:31.737Z,89.51
2018-09-23T18:42:59.969Z,90.61
2018-09-23T18:45:28.572Z,90.42
2018-09-23T18:47:57.650Z,91.22
2018-09-23T18:50:26.014Z,91.50
2018-09-23T18:52:59.996Z,91.44
2018-09-23T18:55:34.105Z,91.44
2018-09-23T18:58:02.352Z,90.67
2018-09-23T19:00:30.454Z,90.39
2018-09-23T19:02:58.796Z,90.52
2018-09-23T19:05:27.022Z,90.16
2018-09-23T19:07:55.216Z,91.27
2018-09-23T19:10:23.348Z,90.67
2018-09-23T19:13:54.870Z,90.45
2018-09-23T19:16:29.246Z,88.94
2018-09-23T19:18:57.952Z,89.26
2018-09-23T19:21:26.949Z,88.63
2018-09-23T19:23:55.612Z,88.54
2018-09-23T19:26:24.567Z,87.66
2018-09-23T19:28:52.983Z,88.07
2018-09-23T19:31:21.334Z,88.34
2018-09-23T19:33:49.568Z,86.71
2018-09-23T19:36:17.783Z,87.06
2018-09-23T19:38:46.034Z,87.44
2018-09-23T19:41:14.328Z,87.00
2018-09-23T19:43:42.545Z,87.07
2018-09-23T19:46:10.795Z,86.22
2018-09-23T19:48:39.036Z,86.77
2018-09-23T19:51:07.253Z,85.96
2018-09-23T19:53:35.504Z,86.14
2018-09-23T19:56:03.764Z,85.42
2018-09-23T19:58:31.911Z,83.49
2018-09-23T20:01:00.021Z,84.03
2018-09-23T20:03:28.227Z,84.82
2018-09-23T20:05:56.420Z,85.57
2018-09-23T20:08:24.621Z,84.38
2018-09-23T20:10:52.879Z,83.00
2018-09-23T20:13:21.017Z,83.88
2018-09-23T20:15:49.788Z,83.96
2018-09-23T20:18:17.899Z,82.52
2018-09-23T20:20:46.123Z,83.17
2018-09-23T20:23:14.600Z,82.62
2018-09-23T20:25:42.938Z,82.83
2018-09-23T20:28:11.422Z,82.76
2018-09-23T20:30:39.688Z,83.27
2018-09-23T20:33:07.994Z,83.26
2018-09-23T20:35:36.139Z,82.88
2018-09-23T20:38:05.169Z,83.50
2018-09-23T20:40:33.372Z,83.77
2018-09-23T20:43:01.560Z,84.05
2018-09-23T20:45:29.842Z,83.48
2018-09-23T20:47:58.979Z,83.11
2018-09-23T20:50:27.144Z,82.53
2018-09-23T20:52:55.480Z,82.06
2018-09-23T20:55:23.630Z,82.02
2018-09-23T20:57:51.984Z,82.27
2018-09-23T21:00:20.245Z,81.83
2018-09-23T21:02:48.432Z,81.54
2018-09-23T21:05:16.652Z,81.27
2018-09-23T21:07:44.836Z,81.59
2018-09-23T21:10:13.068Z,81.79
2018-09-23T21:12:41.944Z,82.31
2018-09-23T21:15:10.140Z,81.52
2018-09-23T21:17:38.433Z,80.56
2018-09-23T21:20:07.074Z,80.50
2018-09-23T21:22:35.219Z,80.36
2018-09-23T21:25:03.714Z,81.96
2018-09-23T21:27:32.185Z,80.48
2018-09-23T21:30:00.456Z,81.21
2018-09-23T21:32:29.374Z,81.84
2018-09-23T21:34:57.707Z,82.20
2018-09-23T21:37:25.927Z,82.52
2018-09-23T21:39:54.082Z,81.53
2018-09-23T21:42:22.447Z,80.50
2018-09-23T21:44:50.613Z,80.85
2018-09-23T21:47:19.263Z,80.78
2018-09-23T21:49:47.414Z,80.96
2018-09-23T21:52:15.681Z,79.17
2018-09-23T21:54:43.887Z,79.86
2018-09-23T21:57:12.161Z,79.26
2018-09-23T21:59:40.293Z,79.87
2018-09-23T22:02:08.621Z,79.41
2018-09-23T22:04:36.859Z,80.15
2018-09-23T22:07:05.148Z,79.22
2018-09-23T22:09:33.338Z,79.83
2018-09-23T22:12:01.912Z,79.62
2018-09-23T22:14:30.192Z,79.63
2018-09-23T22:16:58.864Z,80.20
2018-09-23T22:19:27.863Z,80.18
2018-09-23T22:21:56.159Z,80.68
2018-09-23T22:24:24.400Z,80.35
2018-09-23T22:26:52.657Z,80.33
2018-09-23T22:29:20.867Z,81.12
2018-09-23T22:31:49.151Z,80.65
2018-09-23T22:34:18.428Z,80.61
2018-09-23T22:36:47.016Z,80.47
2018-09-23T22:39:15.587Z,81.38
2018-09-23T22:41:43.982Z,81.51
2018-09-23T22:44:12.268Z,81.22
2018-09-23T22:46:40.629Z,81.99
2018-09-23T22:49:08.983Z,82.65
2018-09-23T22:51:37.094Z,82.17
2018-09-23T22:54:05.697Z,81.67
2018-09-23T22:56:33.873Z,81.72
2018-09-23T22:59:02.041Z,82.67
2018-09-23T23:01:30.853Z,81.69
2018-09-23T23:03:59.510Z,81.12
2018-09-23T23:06:27.903Z,81.44
2018-09-23T23:08:56.062Z,81.40
2018-09-23T23:11:24.594Z,81.54
2018-09-23T23:13:52.886Z,81.17
2018-09-23T23:16:21.259Z,80.97
2018-09-23T23:18:49.504Z,81.06
2018-09-23T23:21:17.660Z,80.84
2018-09-23T23:23:45.847Z,81.34
2018-09-23T23:26:14.161Z,80.64
2018-09-23T23:28:42.406Z,81.80
2018-09-23T23:31:10.745Z,81.63
2018-09-23T23:33:39.006Z,81.89
2018-09-23T23:36:07.948Z,82.89
2018-09-23T23:38:36.089Z,83.63
2018-09-23T23:41:05.189Z,83.68
2018-09-23T23:43:33.305Z,83.67
2018-09-23T23:46:01.591Z,83.38
2018-09-23T23:48:31.237Z,84.10
2018-09-23T23:50:59.381Z,85.60
2018-09-23T23:53:27.647Z,85.29
2018-09-23T23:55:56.360Z,85.98
2018-09-23T23:58:24.741Z,85.96
